sensor_id;sensor_type;location;lat;lon;timestamp;P1;durP1;ratioP1;P2;durP2;ratioP2
65182;SDS011;51771;51.068;-1.780;2023-06-19T00:00:22;7.10;;;2.40;;
65182;SDS011;51771;51.068;-1.780;2023-06-19T00:02:48;5.57;;;2.33;;
65182;SDS011;51771;51.068;-1.780;2023-06-19T00:05:13;6.33;;;2.87;;
65182;SDS011;51771;51.068;-1.780;2023-06-19T00:07:38;7.85;;;3.00;;
65182;SDS011;51771;51.068;-1.780;2023-06-19T00:10:04;5.27;;;2.53;;
65182;SDS011;51771;51.068;-1.780;2023-06-19T00:12:29;10.30;;;3.35;;
65182;SDS011;51771;51.068;-1.780;2023-06-19T00:14:54;7.20;;;3.30;;
65182;SDS011;51771;51.068;-1.780;2023-06-19T00:17:20;7.60;;;3.27;;
65182;SDS011;51771;51.068;-1.780;2023-06-19T00:19:45;9.90;;;3.17;;
65182;SDS011;51771;51.068;-1.780;2023-06-19T00:22:10;7.10;;;3.22;;
65182;SDS011;51771;51.068;-1.780;2023-06-19T00:24:35;7.27;;;2.93;;
65182;SDS011;51771;51.068;-1.780;2023-06-19T00:27:00;6.30;;;2.93;;
65182;SDS011;51771;51.068;-1.780;2023-06-19T00:29:27;7.43;;;3.13;;
65182;SDS011;51771;51.068;-1.780;2023-06-19T00:31:53;4.97;;;2.20;;
65182;SDS011;51771;51.068;-1.780;2023-06-19T00:34:18;4.95;;;2.85;;
65182;SDS011;51771;51.068;-1.780;2023-06-19T00:36:44;7.63;;;3.05;;
65182;SDS011;51771;51.068;-1.780;2023-06-19T00:39:09;6.00;;;3.10;;
65182;SDS011;51771;51.068;-1.780;2023-06-19T00:41:35;7.15;;;3.05;;
65182;SDS011;51771;51.068;-1.780;2023-06-19T00:44:01;7.28;;;3.20;;
65182;SDS011;51771;51.068;-1.780;2023-06-19T00:46:26;7.07;;;3.20;;
65182;SDS011;51771;51.068;-1.780;2023-06-19T00:48:51;6.17;;;3.13;;
65182;SDS011;51771;51.068;-1.780;2023-06-19T00:51:17;7.78;;;3.15;;
65182;SDS011;51771;51.068;-1.780;2023-06-19T00:53:42;7.72;;;3.05;;
65182;SDS011;51771;51.068;-1.780;2023-06-19T00:56:07;9.40;;;3.50;;
65182;SDS011;51771;51.068;-1.780;2023-06-19T00:58:32;7.63;;;3.00;;
65182;SDS011;51771;51.068;-1.780;2023-06-19T01:00:58;6.57;;;2.90;;
65182;SDS011;51771;51.068;-1.780;2023-06-19T01:03:23;8.03;;;3.40;;
65182;SDS011;51771;51.068;-1.780;2023-06-19T01:05:48;6.57;;;3.13;;
65182;SDS011;51771;51.068;-1.780;2023-06-19T01:11:00;5.43;;;2.60;;
65182;SDS011;51771;51.068;-1.780;2023-06-19T01:15:51;7.30;;;3.03;;
65182;SDS011;51771;51.068;-1.780;2023-06-19T01:18:17;8.75;;;2.78;;
65182;SDS011;51771;51.068;-1.780;2023-06-19T01:20:43;8.57;;;3.15;;
65182;SDS011;51771;51.068;-1.780;2023-06-19T01:23:08;8.52;;;3.35;;
65182;SDS011;51771;51.068;-1.780;2023-06-19T01:25:34;6.45;;;2.78;;
65182;SDS011;51771;51.068;-1.780;2023-06-19T01:28:00;10.13;;;3.25;;
65182;SDS011;51771;51.068;-1.780;2023-06-19T01:30:25;10.57;;;3.72;;
65182;SDS011;51771;51.068;-1.780;2023-06-19T01:35:17;8.23;;;3.70;;
65182;SDS011;51771;51.068;-1.780;2023-06-19T01:40:10;20.10;;;2.95;;
65182;SDS011;51771;51.068;-1.780;2023-06-19T01:42:37;9.13;;;2.67;;
65182;SDS011;51771;51.068;-1.780;2023-06-19T01:45:03;6.55;;;2.85;;
65182;SDS011;51771;51.068;-1.780;2023-06-19T01:47:28;7.00;;;3.13;;
65182;SDS011;51771;51.068;-1.780;2023-06-19T01:49:53;10.68;;;3.22;;
65182;SDS011;51771;51.068;-1.780;2023-06-19T01:52:19;23.05;;;2.85;;
65182;SDS011;51771;51.068;-1.780;2023-06-19T01:54:44;8.07;;;3.33;;
65182;SDS011;51771;51.068;-1.780;2023-06-19T01:57:09;9.90;;;2.80;;
65182;SDS011;51771;51.068;-1.780;2023-06-19T01:59:34;6.00;;;2.65;;
65182;SDS011;51771;51.068;-1.780;2023-06-19T02:02:00;7.10;;;2.40;;
65182;SDS011;51771;51.068;-1.780;2023-06-19T02:04:25;8.07;;;3.15;;
65182;SDS011;51771;51.068;-1.780;2023-06-19T02:06:51;6.55;;;3.25;;
65182;SDS011;51771;51.068;-1.780;2023-06-19T02:09:16;6.40;;;2.47;;
65182;SDS011;51771;51.068;-1.780;2023-06-19T02:11:41;7.90;;;2.90;;
65182;SDS011;51771;51.068;-1.780;2023-06-19T02:14:07;7.85;;;3.92;;
65182;SDS011;51771;51.068;-1.780;2023-06-19T02:16:32;8.90;;;3.03;;
65182;SDS011;51771;51.068;-1.780;2023-06-19T02:18:58;10.60;;;3.37;;
65182;SDS011;51771;51.068;-1.780;2023-06-19T02:21:23;7.90;;;3.13;;
65182;SDS011;51771;51.068;-1.780;2023-06-19T02:23:48;8.55;;;2.80;;
65182;SDS011;51771;51.068;-1.780;2023-06-19T02:26:15;7.32;;;3.65;;
65182;SDS011;51771;51.068;-1.780;2023-06-19T02:28:40;11.15;;;4.07;;
65182;SDS011;51771;51.068;-1.780;2023-06-19T02:31:05;8.73;;;3.80;;
65182;SDS011;51771;51.068;-1.780;2023-06-19T02:33:30;9.43;;;3.70;;
65182;SDS011;51771;51.068;-1.780;2023-06-19T02:35:57;13.35;;;3.75;;
65182;SDS011;51771;51.068;-1.780;2023-06-19T02:38:24;8.18;;;3.97;;
65182;SDS011;51771;51.068;-1.780;2023-06-19T02:40:49;8.38;;;3.42;;
65182;SDS011;51771;51.068;-1.780;2023-06-19T02:43:14;7.47;;;3.22;;
65182;SDS011;51771;51.068;-1.780;2023-06-19T02:45:40;8.00;;;4.13;;
65182;SDS011;51771;51.068;-1.780;2023-06-19T02:48:05;6.63;;;2.50;;
65182;SDS011;51771;51.068;-1.780;2023-06-19T02:50:31;11.38;;;3.38;;
65182;SDS011;51771;51.068;-1.780;2023-06-19T02:52:56;11.23;;;3.35;;
65182;SDS011;51771;51.068;-1.780;2023-06-19T02:55:21;12.50;;;3.30;;
65182;SDS011;51771;51.068;-1.780;2023-06-19T02:57:46;5.97;;;3.40;;
65182;SDS011;51771;51.068;-1.780;2023-06-19T03:00:12;7.10;;;3.33;;
65182;SDS011;51771;51.068;-1.780;2023-06-19T03:02:38;10.73;;;3.40;;
65182;SDS011;51771;51.068;-1.780;2023-06-19T03:05:06;9.73;;;2.78;;
65182;SDS011;51771;51.068;-1.780;2023-06-19T03:07:32;9.02;;;3.72;;
65182;SDS011;51771;51.068;-1.780;2023-06-19T03:09:57;9.03;;;3.83;;
65182;SDS011;51771;51.068;-1.780;2023-06-19T03:12:22;7.80;;;3.07;;
65182;SDS011;51771;51.068;-1.780;2023-06-19T03:14:47;7.83;;;3.13;;
65182;SDS011;51771;51.068;-1.780;2023-06-19T03:17:13;7.57;;;3.60;;
65182;SDS011;51771;51.068;-1.780;2023-06-19T03:19:38;8.63;;;3.13;;
65182;SDS011;51771;51.068;-1.780;2023-06-19T03:22:03;8.87;;;3.80;;
65182;SDS011;51771;51.068;-1.780;2023-06-19T03:24:28;6.28;;;2.75;;
65182;SDS011;51771;51.068;-1.780;2023-06-19T03:26:54;13.10;;;4.10;;
65182;SDS011;51771;51.068;-1.780;2023-06-19T03:29:19;8.67;;;3.67;;
65182;SDS011;51771;51.068;-1.780;2023-06-19T03:31:44;8.88;;;4.10;;
65182;SDS011;51771;51.068;-1.780;2023-06-19T03:34:09;11.17;;;4.60;;
65182;SDS011;51771;51.068;-1.780;2023-06-19T03:36:35;6.80;;;3.40;;
65182;SDS011;51771;51.068;-1.780;2023-06-19T03:39:00;11.07;;;3.60;;
65182;SDS011;51771;51.068;-1.780;2023-06-19T03:41:25;12.20;;;4.60;;
65182;SDS011;51771;51.068;-1.780;2023-06-19T03:43:50;8.33;;;4.33;;
65182;SDS011;51771;51.068;-1.780;2023-06-19T03:46:15;11.73;;;4.87;;
65182;SDS011;51771;51.068;-1.780;2023-06-19T03:48:41;11.95;;;4.97;;
65182;SDS011;51771;51.068;-1.780;2023-06-19T03:51:06;12.43;;;4.50;;
65182;SDS011;51771;51.068;-1.780;2023-06-19T03:53:31;12.17;;;4.90;;
65182;SDS011;51771;51.068;-1.780;2023-06-19T03:55:56;12.87;;;4.67;;
65182;SDS011;51771;51.068;-1.780;2023-06-19T03:58:22;12.57;;;5.00;;
65182;SDS011;51771;51.068;-1.780;2023-06-19T04:00:47;16.98;;;7.20;;
65182;SDS011;51771;51.068;-1.780;2023-06-19T04:03:12;20.93;;;6.23;;
65182;SDS011;51771;51.068;-1.780;2023-06-19T04:05:38;17.80;;;5.63;;
65182;SDS011;51771;51.068;-1.780;2023-06-19T04:08:04;15.25;;;4.93;;
65182;SDS011;51771;51.068;-1.780;2023-06-19T04:10:29;16.60;;;5.47;;
65182;SDS011;51771;51.068;-1.780;2023-06-19T04:12:54;13.65;;;6.15;;
65182;SDS011;51771;51.068;-1.780;2023-06-19T04:15:20;11.13;;;4.85;;
65182;SDS011;51771;51.068;-1.780;2023-06-19T04:17:45;14.18;;;5.38;;
65182;SDS011;51771;51.068;-1.780;2023-06-19T04:20:11;17.65;;;6.97;;
65182;SDS011;51771;51.068;-1.780;2023-06-19T04:22:40;16.25;;;5.75;;
65182;SDS011;51771;51.068;-1.780;2023-06-19T04:25:06;9.98;;;4.80;;
65182;SDS011;51771;51.068;-1.780;2023-06-19T04:27:31;18.63;;;6.88;;
65182;SDS011;51771;51.068;-1.780;2023-06-19T04:29:57;16.43;;;6.07;;
65182;SDS011;51771;51.068;-1.780;2023-06-19T04:32:22;15.52;;;5.78;;
65182;SDS011;51771;51.068;-1.780;2023-06-19T04:34:47;18.70;;;6.67;;
65182;SDS011;51771;51.068;-1.780;2023-06-19T04:37:12;17.95;;;6.28;;
65182;SDS011;51771;51.068;-1.780;2023-06-19T04:39:38;20.73;;;6.55;;
65182;SDS011;51771;51.068;-1.780;2023-06-19T04:42:03;17.27;;;7.28;;
65182;SDS011;51771;51.068;-1.780;2023-06-19T04:44:34;19.23;;;7.32;;
65182;SDS011;51771;51.068;-1.780;2023-06-19T04:46:59;15.27;;;7.53;;
65182;SDS011;51771;51.068;-1.780;2023-06-19T04:49:28;14.85;;;6.20;;
65182;SDS011;51771;51.068;-1.780;2023-06-19T04:51:55;16.63;;;6.72;;
65182;SDS011;51771;51.068;-1.780;2023-06-19T04:54:20;13.07;;;6.22;;
65182;SDS011;51771;51.068;-1.780;2023-06-19T04:56:45;16.73;;;7.03;;
65182;SDS011;51771;51.068;-1.780;2023-06-19T04:59:10;22.63;;;6.57;;
65182;SDS011;51771;51.068;-1.780;2023-06-19T05:01:36;15.07;;;5.60;;
65182;SDS011;51771;51.068;-1.780;2023-06-19T05:04:05;15.13;;;6.60;;
65182;SDS011;51771;51.068;-1.780;2023-06-19T05:06:30;17.33;;;6.18;;
65182;SDS011;51771;51.068;-1.780;2023-06-19T05:08:55;14.18;;;5.65;;
65182;SDS011;51771;51.068;-1.780;2023-06-19T05:11:21;17.57;;;6.73;;
65182;SDS011;51771;51.068;-1.780;2023-06-19T05:13:46;20.37;;;6.07;;
65182;SDS011;51771;51.068;-1.780;2023-06-19T05:16:11;17.10;;;6.13;;
65182;SDS011;51771;51.068;-1.780;2023-06-19T05:18:41;19.02;;;6.90;;
65182;SDS011;51771;51.068;-1.780;2023-06-19T05:21:06;13.55;;;6.35;;
65182;SDS011;51771;51.068;-1.780;2023-06-19T05:23:31;12.87;;;5.97;;
65182;SDS011;51771;51.068;-1.780;2023-06-19T05:25:57;18.52;;;5.85;;
65182;SDS011;51771;51.068;-1.780;2023-06-19T05:28:22;12.63;;;6.00;;
65182;SDS011;51771;51.068;-1.780;2023-06-19T05:30:47;11.90;;;4.85;;
65182;SDS011;51771;51.068;-1.780;2023-06-19T05:33:12;14.53;;;6.80;;
65182;SDS011;51771;51.068;-1.780;2023-06-19T05:35:40;11.13;;;5.50;;
65182;SDS011;51771;51.068;-1.780;2023-06-19T05:38:06;13.23;;;4.78;;
65182;SDS011;51771;51.068;-1.780;2023-06-19T05:40:31;11.77;;;4.80;;
65182;SDS011;51771;51.068;-1.780;2023-06-19T05:42:56;14.53;;;5.57;;
65182;SDS011;51771;51.068;-1.780;2023-06-19T05:45:21;10.45;;;4.32;;
65182;SDS011;51771;51.068;-1.780;2023-06-19T05:47:47;12.20;;;5.07;;
65182;SDS011;51771;51.068;-1.780;2023-06-19T05:50:12;10.55;;;5.20;;
65182;SDS011;51771;51.068;-1.780;2023-06-19T05:52:37;12.07;;;4.57;;
65182;SDS011;51771;51.068;-1.780;2023-06-19T05:55:06;10.77;;;4.75;;
65182;SDS011;51771;51.068;-1.780;2023-06-19T05:57:32;10.48;;;5.07;;
65182;SDS011;51771;51.068;-1.780;2023-06-19T05:59:58;9.77;;;4.10;;
65182;SDS011;51771;51.068;-1.780;2023-06-19T06:02:23;11.20;;;4.63;;
65182;SDS011;51771;51.068;-1.780;2023-06-19T06:04:48;11.57;;;4.50;;
65182;SDS011;51771;51.068;-1.780;2023-06-19T06:07:14;10.83;;;3.83;;
65182;SDS011;51771;51.068;-1.780;2023-06-19T06:09:39;8.45;;;4.40;;
65182;SDS011;51771;51.068;-1.780;2023-06-19T06:12:04;8.80;;;3.70;;
65182;SDS011;51771;51.068;-1.780;2023-06-19T06:14:30;11.68;;;4.25;;
65182;SDS011;51771;51.068;-1.780;2023-06-19T06:16:55;6.83;;;3.03;;
65182;SDS011;51771;51.068;-1.780;2023-06-19T06:19:20;7.37;;;3.50;;
65182;SDS011;51771;51.068;-1.780;2023-06-19T06:21:48;6.65;;;2.72;;
65182;SDS011;51771;51.068;-1.780;2023-06-19T06:24:13;8.95;;;3.55;;
65182;SDS011;51771;51.068;-1.780;2023-06-19T06:26:38;7.28;;;3.38;;
65182;SDS011;51771;51.068;-1.780;2023-06-19T06:29:03;7.80;;;3.10;;
65182;SDS011;51771;51.068;-1.780;2023-06-19T06:31:28;7.75;;;3.13;;
65182;SDS011;51771;51.068;-1.780;2023-06-19T06:33:54;6.68;;;3.15;;
65182;SDS011;51771;51.068;-1.780;2023-06-19T06:36:19;7.73;;;2.87;;
65182;SDS011;51771;51.068;-1.780;2023-06-19T06:38:44;5.97;;;2.63;;
65182;SDS011;51771;51.068;-1.780;2023-06-19T06:41:10;7.43;;;3.13;;
65182;SDS011;51771;51.068;-1.780;2023-06-19T06:43:35;7.57;;;2.97;;
65182;SDS011;51771;51.068;-1.780;2023-06-19T06:46:00;7.33;;;2.70;;
65182;SDS011;51771;51.068;-1.780;2023-06-19T06:48:25;5.43;;;2.83;;
65182;SDS011;51771;51.068;-1.780;2023-06-19T06:50:51;6.50;;;2.83;;
65182;SDS011;51771;51.068;-1.780;2023-06-19T06:53:24;5.88;;;2.55;;
65182;SDS011;51771;51.068;-1.780;2023-06-19T06:55:49;5.25;;;2.53;;
65182;SDS011;51771;51.068;-1.780;2023-06-19T06:58:14;7.50;;;2.80;;
65182;SDS011;51771;51.068;-1.780;2023-06-19T07:00:42;5.80;;;2.72;;
65182;SDS011;51771;51.068;-1.780;2023-06-19T07:03:07;6.23;;;2.50;;
65182;SDS011;51771;51.068;-1.780;2023-06-19T07:05:32;5.67;;;2.50;;
65182;SDS011;51771;51.068;-1.780;2023-06-19T07:07:58;6.13;;;2.95;;
65182;SDS011;51771;51.068;-1.780;2023-06-19T07:10:23;4.88;;;2.30;;
65182;SDS011;51771;51.068;-1.780;2023-06-19T07:12:48;5.20;;;2.30;;
65182;SDS011;51771;51.068;-1.780;2023-06-19T07:15:14;6.07;;;2.35;;
65182;SDS011;51771;51.068;-1.780;2023-06-19T07:17:39;7.50;;;2.60;;
65182;SDS011;51771;51.068;-1.780;2023-06-19T07:20:04;7.03;;;2.90;;
65182;SDS011;51771;51.068;-1.780;2023-06-19T07:22:31;5.63;;;2.63;;
65182;SDS011;51771;51.068;-1.780;2023-06-19T07:24:56;9.35;;;2.45;;
65182;SDS011;51771;51.068;-1.780;2023-06-19T07:27:21;5.70;;;2.20;;
65182;SDS011;51771;51.068;-1.780;2023-06-19T07:29:47;7.78;;;2.80;;
65182;SDS011;51771;51.068;-1.780;2023-06-19T07:32:12;5.32;;;2.45;;
65182;SDS011;51771;51.068;-1.780;2023-06-19T07:34:37;4.73;;;2.20;;
65182;SDS011;51771;51.068;-1.780;2023-06-19T07:37:02;7.83;;;2.53;;
65182;SDS011;51771;51.068;-1.780;2023-06-19T07:39:28;5.72;;;1.92;;
65182;SDS011;51771;51.068;-1.780;2023-06-19T07:41:53;5.17;;;1.87;;
65182;SDS011;51771;51.068;-1.780;2023-06-19T07:44:21;6.50;;;2.50;;
65182;SDS011;51771;51.068;-1.780;2023-06-19T07:46:47;6.22;;;2.65;;
65182;SDS011;51771;51.068;-1.780;2023-06-19T07:49:12;6.22;;;2.20;;
65182;SDS011;51771;51.068;-1.780;2023-06-19T07:51:37;6.82;;;2.60;;
65182;SDS011;51771;51.068;-1.780;2023-06-19T07:54:03;5.53;;;2.43;;
65182;SDS011;51771;51.068;-1.780;2023-06-19T07:56:28;6.93;;;2.35;;
65182;SDS011;51771;51.068;-1.780;2023-06-19T07:58:53;6.35;;;2.47;;
65182;SDS011;51771;51.068;-1.780;2023-06-19T08:01:19;6.38;;;2.35;;
65182;SDS011;51771;51.068;-1.780;2023-06-19T08:03:45;7.70;;;3.53;;
65182;SDS011;51771;51.068;-1.780;2023-06-19T08:06:10;7.20;;;2.78;;
65182;SDS011;51771;51.068;-1.780;2023-06-19T08:08:35;5.95;;;2.50;;
65182;SDS011;51771;51.068;-1.780;2023-06-19T08:11:00;7.85;;;3.05;;
65182;SDS011;51771;51.068;-1.780;2023-06-19T08:13:26;5.25;;;2.20;;
65182;SDS011;51771;51.068;-1.780;2023-06-19T08:15:51;6.13;;;2.15;;
65182;SDS011;51771;51.068;-1.780;2023-06-19T08:18:17;6.60;;;2.50;;
65182;SDS011;51771;51.068;-1.780;2023-06-19T08:20:42;4.78;;;1.85;;
65182;SDS011;51771;51.068;-1.780;2023-06-19T08:23:07;5.47;;;2.40;;
65182;SDS011;51771;51.068;-1.780;2023-06-19T08:25:32;4.75;;;2.05;;
65182;SDS011;51771;51.068;-1.780;2023-06-19T08:27:58;5.03;;;2.10;;
65182;SDS011;51771;51.068;-1.780;2023-06-19T08:30:23;5.23;;;2.10;;
65182;SDS011;51771;51.068;-1.780;2023-06-19T08:32:48;5.53;;;2.87;;
65182;SDS011;51771;51.068;-1.780;2023-06-19T08:35:14;8.57;;;2.90;;
65182;SDS011;51771;51.068;-1.780;2023-06-19T08:37:40;5.25;;;2.10;;
65182;SDS011;51771;51.068;-1.780;2023-06-19T08:40:05;5.00;;;2.30;;
65182;SDS011;51771;51.068;-1.780;2023-06-19T08:42:34;4.72;;;2.20;;
65182;SDS011;51771;51.068;-1.780;2023-06-19T08:44:59;5.13;;;2.20;;
65182;SDS011;51771;51.068;-1.780;2023-06-19T08:47:28;5.55;;;2.00;;
65182;SDS011;51771;51.068;-1.780;2023-06-19T08:49:54;5.45;;;1.85;;
65182;SDS011;51771;51.068;-1.780;2023-06-19T08:52:19;5.50;;;2.67;;
65182;SDS011;51771;51.068;-1.780;2023-06-19T08:54:44;6.63;;;2.00;;
65182;SDS011;51771;51.068;-1.780;2023-06-19T08:57:10;5.93;;;2.38;;
65182;SDS011;51771;51.068;-1.780;2023-06-19T08:59:36;5.47;;;2.03;;
65182;SDS011;51771;51.068;-1.780;2023-06-19T09:02:01;4.20;;;1.90;;
65182;SDS011;51771;51.068;-1.780;2023-06-19T09:04:27;5.65;;;2.38;;
65182;SDS011;51771;51.068;-1.780;2023-06-19T09:06:54;4.45;;;1.95;;
65182;SDS011;51771;51.068;-1.780;2023-06-19T09:09:20;5.22;;;2.20;;
65182;SDS011;51771;51.068;-1.780;2023-06-19T09:11:56;6.97;;;2.45;;
65182;SDS011;51771;51.068;-1.780;2023-06-19T09:14:24;4.57;;;2.08;;
65182;SDS011;51771;51.068;-1.780;2023-06-19T09:16:49;5.05;;;2.00;;
65182;SDS011;51771;51.068;-1.780;2023-06-19T09:19:19;5.40;;;1.80;;
65182;SDS011;51771;51.068;-1.780;2023-06-19T09:21:51;5.18;;;2.03;;
65182;SDS011;51771;51.068;-1.780;2023-06-19T09:24:16;7.50;;;2.25;;
65182;SDS011;51771;51.068;-1.780;2023-06-19T09:26:41;5.97;;;2.27;;
65182;SDS011;51771;51.068;-1.780;2023-06-19T09:29:10;5.30;;;2.25;;
65182;SDS011;51771;51.068;-1.780;2023-06-19T09:31:36;4.85;;;2.00;;
65182;SDS011;51771;51.068;-1.780;2023-06-19T09:34:03;5.43;;;2.33;;
65182;SDS011;51771;51.068;-1.780;2023-06-19T09:36:28;4.07;;;1.77;;
65182;SDS011;51771;51.068;-1.780;2023-06-19T09:38:54;4.13;;;1.70;;
65182;SDS011;51771;51.068;-1.780;2023-06-19T09:41:20;4.35;;;1.80;;
65182;SDS011;51771;51.068;-1.780;2023-06-19T09:43:46;5.18;;;1.80;;
65182;SDS011;51771;51.068;-1.780;2023-06-19T09:46:12;6.22;;;1.70;;
65182;SDS011;51771;51.068;-1.780;2023-06-19T09:48:42;5.13;;;1.90;;
65182;SDS011;51771;51.068;-1.780;2023-06-19T09:51:24;6.28;;;2.60;;
65182;SDS011;51771;51.068;-1.780;2023-06-19T09:53:50;7.00;;;2.00;;
65182;SDS011;51771;51.068;-1.780;2023-06-19T09:56:16;5.45;;;1.73;;
65182;SDS011;51771;51.068;-1.780;2023-06-19T09:58:46;5.55;;;1.75;;
65182;SDS011;51771;51.068;-1.780;2023-06-19T10:01:14;4.45;;;1.73;;
65182;SDS011;51771;51.068;-1.780;2023-06-19T10:03:40;4.88;;;1.90;;
65182;SDS011;51771;51.068;-1.780;2023-06-19T10:06:05;5.70;;;1.83;;
65182;SDS011;51771;51.068;-1.780;2023-06-19T10:08:40;4.97;;;1.95;;
65182;SDS011;51771;51.068;-1.780;2023-06-19T10:11:06;4.82;;;1.88;;
65182;SDS011;51771;51.068;-1.780;2023-06-19T10:13:35;5.68;;;1.85;;
65182;SDS011;51771;51.068;-1.780;2023-06-19T10:16:03;4.32;;;1.52;;
65182;SDS011;51771;51.068;-1.780;2023-06-19T10:18:28;4.70;;;1.83;;
65182;SDS011;51771;51.068;-1.780;2023-06-19T10:20:56;4.05;;;1.60;;
65182;SDS011;51771;51.068;-1.780;2023-06-19T10:23:23;4.18;;;1.30;;
65182;SDS011;51771;51.068;-1.780;2023-06-19T10:28:21;4.80;;;1.70;;
65182;SDS011;51771;51.068;-1.780;2023-06-19T10:31:00;4.35;;;1.45;;
65182;SDS011;51771;51.068;-1.780;2023-06-19T10:33:27;5.25;;;1.67;;
65182;SDS011;51771;51.068;-1.780;2023-06-19T10:35:52;4.72;;;1.70;;
65182;SDS011;51771;51.068;-1.780;2023-06-19T10:38:18;5.53;;;1.90;;
65182;SDS011;51771;51.068;-1.780;2023-06-19T10:40:44;4.28;;;1.40;;
65182;SDS011;51771;51.068;-1.780;2023-06-19T10:43:10;4.05;;;1.27;;
65182;SDS011;51771;51.068;-1.780;2023-06-19T10:45:35;4.43;;;1.33;;
65182;SDS011;51771;51.068;-1.780;2023-06-19T10:48:01;3.08;;;1.42;;
65182;SDS011;51771;51.068;-1.780;2023-06-19T10:50:27;3.45;;;1.30;;
65182;SDS011;51771;51.068;-1.780;2023-06-19T10:52:53;3.87;;;1.40;;
65182;SDS011;51771;51.068;-1.780;2023-06-19T10:55:20;4.75;;;1.40;;
65182;SDS011;51771;51.068;-1.780;2023-06-19T10:57:46;3.47;;;1.27;;
65182;SDS011;51771;51.068;-1.780;2023-06-19T11:00:11;4.32;;;1.40;;
65182;SDS011;51771;51.068;-1.780;2023-06-19T11:02:46;4.78;;;1.23;;
65182;SDS011;51771;51.068;-1.780;2023-06-19T11:05:12;6.88;;;1.90;;
65182;SDS011;51771;51.068;-1.780;2023-06-19T11:07:37;5.18;;;1.50;;
65182;SDS011;51771;51.068;-1.780;2023-06-19T11:10:03;4.88;;;1.50;;
65182;SDS011;51771;51.068;-1.780;2023-06-19T11:12:28;5.53;;;1.73;;
65182;SDS011;51771;51.068;-1.780;2023-06-19T11:14:53;4.07;;;1.65;;
65182;SDS011;51771;51.068;-1.780;2023-06-19T11:17:19;5.43;;;1.40;;
65182;SDS011;51771;51.068;-1.780;2023-06-19T11:19:46;3.85;;;1.38;;
65182;SDS011;51771;51.068;-1.780;2023-06-19T11:22:11;4.65;;;1.50;;
65182;SDS011;51771;51.068;-1.780;2023-06-19T11:24:37;4.25;;;1.45;;
65182;SDS011;51771;51.068;-1.780;2023-06-19T11:27:13;5.55;;;1.40;;
65182;SDS011;51771;51.068;-1.780;2023-06-19T11:29:40;5.53;;;1.60;;
65182;SDS011;51771;51.068;-1.780;2023-06-19T11:32:07;5.17;;;1.67;;
65182;SDS011;51771;51.068;-1.780;2023-06-19T11:34:33;4.03;;;1.40;;
65182;SDS011;51771;51.068;-1.780;2023-06-19T11:36:59;4.93;;;1.70;;
65182;SDS011;51771;51.068;-1.780;2023-06-19T11:39:24;4.80;;;1.20;;
65182;SDS011;51771;51.068;-1.780;2023-06-19T11:41:49;5.35;;;1.60;;
65182;SDS011;51771;51.068;-1.780;2023-06-19T11:44:15;4.22;;;1.50;;
65182;SDS011;51771;51.068;-1.780;2023-06-19T11:46:41;4.03;;;1.52;;
65182;SDS011;51771;51.068;-1.780;2023-06-19T11:49:16;4.25;;;1.63;;
65182;SDS011;51771;51.068;-1.780;2023-06-19T11:51:45;4.00;;;1.10;;
65182;SDS011;51771;51.068;-1.780;2023-06-19T11:54:11;3.95;;;1.25;;
65182;SDS011;51771;51.068;-1.780;2023-06-19T11:56:36;3.25;;;1.17;;
65182;SDS011;51771;51.068;-1.780;2023-06-19T11:59:02;5.05;;;1.45;;
65182;SDS011;51771;51.068;-1.780;2023-06-19T12:01:28;3.47;;;1.30;;
65182;SDS011;51771;51.068;-1.780;2023-06-19T12:03:53;4.85;;;1.38;;
65182;SDS011;51771;51.068;-1.780;2023-06-19T12:06:18;7.38;;;1.60;;
65182;SDS011;51771;51.068;-1.780;2023-06-19T12:08:44;4.33;;;1.67;;
65182;SDS011;51771;51.068;-1.780;2023-06-19T12:11:09;5.53;;;1.35;;
65182;SDS011;51771;51.068;-1.780;2023-06-19T12:13:35;4.43;;;1.33;;
65182;SDS011;51771;51.068;-1.780;2023-06-19T12:16:00;4.90;;;1.27;;
65182;SDS011;51771;51.068;-1.780;2023-06-19T12:18:25;2.77;;;1.00;;
65182;SDS011;51771;51.068;-1.780;2023-06-19T12:20:51;4.03;;;1.10;;
65182;SDS011;51771;51.068;-1.780;2023-06-19T12:23:16;4.38;;;1.35;;
65182;SDS011;51771;51.068;-1.780;2023-06-19T12:25:41;2.83;;;1.17;;
65182;SDS011;51771;51.068;-1.780;2023-06-19T12:28:06;3.30;;;1.30;;
65182;SDS011;51771;51.068;-1.780;2023-06-19T12:30:33;3.13;;;1.30;;
65182;SDS011;51771;51.068;-1.780;2023-06-19T12:32:58;4.30;;;1.40;;
65182;SDS011;51771;51.068;-1.780;2023-06-19T12:35:24;2.85;;;1.02;;
65182;SDS011;51771;51.068;-1.780;2023-06-19T12:37:51;3.30;;;1.10;;
65182;SDS011;51771;51.068;-1.780;2023-06-19T12:40:16;3.25;;;1.13;;
65182;SDS011;51771;51.068;-1.780;2023-06-19T12:42:41;4.30;;;1.40;;
65182;SDS011;51771;51.068;-1.780;2023-06-19T12:45:08;5.43;;;1.50;;
65182;SDS011;51771;51.068;-1.780;2023-06-19T12:47:33;4.38;;;1.10;;
65182;SDS011;51771;51.068;-1.780;2023-06-19T12:49:59;3.47;;;1.10;;
65182;SDS011;51771;51.068;-1.780;2023-06-19T12:52:24;3.63;;;1.30;;
65182;SDS011;51771;51.068;-1.780;2023-06-19T12:54:49;3.03;;;1.07;;
65182;SDS011;51771;51.068;-1.780;2023-06-19T12:57:14;3.03;;;1.17;;
65182;SDS011;51771;51.068;-1.780;2023-06-19T12:59:40;2.90;;;0.90;;
65182;SDS011;51771;51.068;-1.780;2023-06-19T13:02:05;3.25;;;1.00;;
65182;SDS011;51771;51.068;-1.780;2023-06-19T13:04:30;4.75;;;1.77;;
65182;SDS011;51771;51.068;-1.780;2023-06-19T13:06:55;4.77;;;1.30;;
65182;SDS011;51771;51.068;-1.780;2023-06-19T13:09:21;4.07;;;1.73;;
65182;SDS011;51771;51.068;-1.780;2023-06-19T13:11:46;3.63;;;1.20;;
65182;SDS011;51771;51.068;-1.780;2023-06-19T13:14:11;4.33;;;1.20;;
65182;SDS011;51771;51.068;-1.780;2023-06-19T13:16:36;4.17;;;1.30;;
65182;SDS011;51771;51.068;-1.780;2023-06-19T13:19:02;5.75;;;1.40;;
65182;SDS011;51771;51.068;-1.780;2023-06-19T13:21:27;4.03;;;1.23;;
65182;SDS011;51771;51.068;-1.780;2023-06-19T13:23:52;3.40;;;1.20;;
65182;SDS011;51771;51.068;-1.780;2023-06-19T13:26:17;4.37;;;1.30;;
65182;SDS011;51771;51.068;-1.780;2023-06-19T13:28:43;3.92;;;1.35;;
65182;SDS011;51771;51.068;-1.780;2023-06-19T13:31:08;3.67;;;1.20;;
65182;SDS011;51771;51.068;-1.780;2023-06-19T13:33:33;3.78;;;1.38;;
65182;SDS011;51771;51.068;-1.780;2023-06-19T13:35:58;4.70;;;1.40;;
65182;SDS011;51771;51.068;-1.780;2023-06-19T13:38:23;4.83;;;1.57;;
65182;SDS011;51771;51.068;-1.780;2023-06-19T13:40:49;5.45;;;1.30;;
65182;SDS011;51771;51.068;-1.780;2023-06-19T13:43:15;3.45;;;1.30;;
65182;SDS011;51771;51.068;-1.780;2023-06-19T13:45:40;4.47;;;1.52;;
65182;SDS011;51771;51.068;-1.780;2023-06-19T13:48:05;4.57;;;1.20;;
65182;SDS011;51771;51.068;-1.780;2023-06-19T13:50:31;4.57;;;1.50;;
65182;SDS011;51771;51.068;-1.780;2023-06-19T13:52:57;6.10;;;1.73;;
65182;SDS011;51771;51.068;-1.780;2023-06-19T13:55:23;3.83;;;1.17;;
65182;SDS011;51771;51.068;-1.780;2023-06-19T13:57:48;4.30;;;1.27;;
65182;SDS011;51771;51.068;-1.780;2023-06-19T14:00:13;5.10;;;1.30;;
65182;SDS011;51771;51.068;-1.780;2023-06-19T14:02:39;3.38;;;1.10;;
65182;SDS011;51771;51.068;-1.780;2023-06-19T14:05:05;4.97;;;1.58;;
65182;SDS011;51771;51.068;-1.780;2023-06-19T14:07:31;6.47;;;1.23;;
65182;SDS011;51771;51.068;-1.780;2023-06-19T14:09:56;4.68;;;1.45;;
65182;SDS011;51771;51.068;-1.780;2023-06-19T14:12:22;3.43;;;1.00;;
65182;SDS011;51771;51.068;-1.780;2023-06-19T14:14:47;4.77;;;1.80;;
65182;SDS011;51771;51.068;-1.780;2023-06-19T14:17:13;4.27;;;1.57;;
65182;SDS011;51771;51.068;-1.780;2023-06-19T14:19:38;4.47;;;1.30;;
65182;SDS011;51771;51.068;-1.780;2023-06-19T14:22:04;4.17;;;1.23;;
65182;SDS011;51771;51.068;-1.780;2023-06-19T14:24:29;3.60;;;1.27;;
65182;SDS011;51771;51.068;-1.780;2023-06-19T14:26:54;3.57;;;1.47;;
65182;SDS011;51771;51.068;-1.780;2023-06-19T14:29:19;3.97;;;1.13;;
65182;SDS011;51771;51.068;-1.780;2023-06-19T14:31:45;2.95;;;1.20;;
65182;SDS011;51771;51.068;-1.780;2023-06-19T14:34:11;3.40;;;0.90;;